createdAt,value
2018-03-07T00:01:47.468Z,99216.86
2018-03-07T00:04:13.211Z,99214.25
2018-03-07T00:06:38.945Z,99213.41
2018-03-07T00:09:04.689Z,99214.66
2018-03-07T00:11:30.411Z,99213.36
2018-03-07T00:13:56.142Z,99214.31
2018-03-07T00:16:21.879Z,99212.97
2018-03-07T00:18:47.606Z,99215.09
2018-03-07T00:21:13.330Z,99218.16
2018-03-07T00:23:39.079Z,99221.16
2018-03-07T00:26:04.806Z,99217.59
2018-03-07T00:28:30.557Z,99205.83
2018-03-07T00:30:56.300Z,99211.95
2018-03-07T00:33:22.025Z,99211.03
2018-03-07T00:35:47.745Z,99207.61
2018-03-07T00:38:13.465Z,99211.95
2018-03-07T00:40:39.202Z,99203.84
2018-03-07T00:43:04.922Z,99212.12
2018-03-07T00:45:30.678Z,99206.85
2018-03-07T00:47:56.405Z,99208.67
2018-03-07T00:50:22.122Z,99202.95
2018-03-07T00:52:47.866Z,99202.41
2018-03-07T00:55:13.597Z,99203.31
2018-03-07T00:57:39.326Z,99194.81
2018-03-07T01:00:05.052Z,99207.06
2018-03-07T01:02:30.768Z,99207.09
2018-03-07T01:04:56.492Z,99202.23
2018-03-07T01:07:22.209Z,99203.13
2018-03-07T01:09:48.095Z,99202.72
2018-03-07T01:12:13.833Z,99198.42
2018-03-07T01:14:39.550Z,99193.65
2018-03-07T01:17:05.282Z,99197.94
2018-03-07T01:19:31.018Z,99199.23
2018-03-07T01:21:56.746Z,99198.91
2018-03-07T01:24:22.466Z,99196.25
2018-03-07T01:26:48.198Z,99188.05
2018-03-07T01:29:13.929Z,99184.95
2018-03-07T01:31:39.657Z,99184.95
2018-03-07T01:34:05.385Z,99184.89
2018-03-07T01:36:31.125Z,99175.78
2018-03-07T01:38:56.854Z,99174.83
2018-03-07T01:41:22.589Z,99174.41
2018-03-07T01:43:48.312Z,99177.83
2018-03-07T01:46:14.045Z,99172.19
2018-03-07T01:48:39.769Z,99178.77
2018-03-07T01:51:05.499Z,99174.02
2018-03-07T01:53:31.226Z,99167.96
2018-03-07T01:55:56.982Z,99172.33
2018-03-07T01:58:22.721Z,99169.25
2018-03-07T02:00:48.441Z,99163.56
2018-03-07T02:03:14.178Z,99171.41
2018-03-07T02:05:39.902Z,99167.99
2018-03-07T02:08:05.662Z,99166.30
2018-03-07T02:10:33.190Z,99165.77
2018-03-07T02:12:58.930Z,99156.70
2018-03-07T02:15:24.655Z,99159.77
2018-03-07T02:17:50.398Z,99158.48
2018-03-07T02:20:16.116Z,99162.33
2018-03-07T02:22:41.844Z,99157.56
2018-03-07T02:25:07.570Z,99156.25
2018-03-07T02:27:33.293Z,99161.96
2018-03-07T02:29:59.010Z,99161.94
2018-03-07T02:32:24.740Z,99156.81
2018-03-07T02:34:50.454Z,99171.61
2018-03-07T02:37:16.186Z,99168.12
2018-03-07T02:39:41.910Z,99167.80
2018-03-07T02:42:07.656Z,99174.38
2018-03-07T02:44:33.393Z,99171.84
2018-03-07T02:46:59.113Z,99167.48
2018-03-07T02:49:24.856Z,99170.09
2018-03-07T02:51:50.585Z,99162.78
2018-03-07T02:54:16.318Z,99171.91
2018-03-07T02:56:42.039Z,99164.98
2018-03-07T02:59:07.770Z,99167.11
2018-03-07T03:01:33.491Z,99169.28
2018-03-07T03:03:59.233Z,99170.18
2018-03-07T03:06:24.950Z,99172.42
2018-03-07T03:08:50.682Z,99175.46
2018-03-07T03:11:16.404Z,99167.73
2018-03-07T03:13:42.158Z,99171.23
2018-03-07T03:16:07.885Z,99167.39
2018-03-07T03:18:33.613Z,99167.30
2018-03-07T03:20:59.342Z,99165.97
2018-03-07T03:23:25.077Z,99172.08
2018-03-07T03:25:50.794Z,99166.05
2018-03-07T03:28:16.534Z,99163.03
2018-03-07T03:30:42.251Z,99168.61
2018-03-07T03:33:08.000Z,99163.86
2018-03-07T03:35:33.735Z,99170.40
2018-03-07T03:37:59.457Z,99165.61
2018-03-07T03:40:25.198Z,99161.66
2018-03-07T03:42:50.929Z,99171.25
2018-03-07T03:45:16.662Z,99174.34
2018-03-07T03:47:42.390Z,99170.40
2018-03-07T03:50:08.157Z,99171.78
2018-03-07T03:52:33.888Z,99170.48
2018-03-07T03:54:59.626Z,99170.92
2018-03-07T03:57:25.337Z,99176.59
2018-03-07T03:59:51.073Z,99170.53
2018-03-07T04:02:16.799Z,99175.69
2018-03-07T04:04:42.518Z,99179.56
2018-03-07T04:07:08.241Z,99177.81
2018-03-07T04:09:33.969Z,99180.38
2018-03-07T04:11:59.706Z,99180.36
2018-03-07T04:14:25.450Z,99182.49
2018-03-07T04:16:51.190Z,99178.17
2018-03-07T04:19:16.950Z,99175.06
2018-03-07T04:21:42.691Z,99178.93
2018-03-07T04:24:08.431Z,99175.97
2018-03-07T04:26:34.166Z,99176.31
2018-03-07T04:28:59.922Z,99181.10
2018-03-07T04:31:25.665Z,99184.08
2018-03-07T04:33:51.410Z,99179.31
2018-03-07T04:36:17.157Z,99180.59
2018-03-07T04:38:42.889Z,99180.16
2018-03-07T04:41:08.629Z,99176.67
2018-03-07T04:43:34.353Z,99177.95
2018-03-07T04:46:00.088Z,99171.89
2018-03-07T04:48:25.822Z,99173.98
2018-03-07T04:50:51.566Z,99177.84
2018-03-07T04:53:17.306Z,99172.22
2018-03-07T04:55:43.054Z,99177.00
2018-03-07T04:58:08.794Z,99171.77
2018-03-07T05:00:34.535Z,99169.18
2018-03-07T05:03:00.291Z,99170.91
2018-03-07T05:05:26.042Z,99173.92
2018-03-07T05:07:51.779Z,99172.58
2018-03-07T05:10:17.533Z,99167.86
2018-03-07T05:12:43.279Z,99169.09
2018-03-07T05:15:09.005Z,99169.12
2018-03-07T05:17:34.714Z,99145.88
2018-03-07T05:20:00.438Z,99168.23
2018-03-07T05:22:26.162Z,99166.47
2018-03-07T05:24:51.877Z,99169.94
2018-03-07T05:27:17.609Z,99171.67
2018-03-07T05:29:43.322Z,99172.52
2018-03-07T05:32:09.061Z,99173.82
2018-03-07T05:34:34.774Z,99173.80
2018-03-07T05:37:00.509Z,99175.97
2018-03-07T05:39:26.233Z,99173.36
2018-03-07T05:41:51.959Z,99175.08
2018-03-07T05:44:17.686Z,99166.77
2018-03-07T05:46:43.442Z,99169.90
2018-03-07T05:49:09.158Z,99170.76
2018-03-07T05:51:34.893Z,99178.08
2018-03-07T05:54:00.605Z,99178.52
2018-03-07T05:56:26.334Z,99179.36
2018-03-07T05:58:52.045Z,99176.30
2018-03-07T06:01:17.769Z,99183.69
2018-03-07T06:03:43.482Z,99188.44
2018-03-07T06:06:09.214Z,99190.59
2018-03-07T06:08:34.934Z,99196.66
2018-03-07T06:11:00.648Z,99200.97
2018-03-07T06:13:26.385Z,99197.07
2018-03-07T06:15:52.109Z,99197.48
2018-03-07T06:18:17.835Z,99206.55
2018-03-07T06:20:43.554Z,99200.48
2018-03-07T06:23:09.278Z,99195.28
2018-03-07T06:25:34.987Z,99195.70
2018-03-07T06:28:00.706Z,99204.77
2018-03-07T06:30:26.426Z,99204.78
2018-03-07T06:32:52.149Z,99207.87
2018-03-07T06:35:17.864Z,99217.80
2018-03-07T06:37:43.594Z,99213.49
2018-03-07T06:40:09.318Z,99216.07
2018-03-07T06:42:35.054Z,99219.09
2018-03-07T06:45:00.787Z,99227.31
2018-03-07T06:47:26.522Z,99232.89
2018-03-07T06:49:52.242Z,99234.23
2018-03-07T06:52:17.969Z,99235.47
2018-03-07T06:54:43.690Z,99236.33
2018-03-07T06:57:09.422Z,99240.23
2018-03-07T06:59:35.146Z,99239.84
2018-03-07T07:02:00.886Z,99241.98
2018-03-07T07:04:26.619Z,99237.59
2018-03-07T07:06:52.366Z,99241.09
2018-03-07T07:09:18.091Z,99245.38
2018-03-07T07:11:43.814Z,99245.34
2018-03-07T07:14:09.557Z,99250.98
2018-03-07T07:16:35.295Z,99250.53
2018-03-07T07:19:01.026Z,99252.31
2018-03-07T07:21:26.758Z,99254.82
2018-03-07T07:23:52.494Z,99253.99
2018-03-07T07:26:18.219Z,99251.77
2018-03-07T07:28:43.946Z,99256.95
2018-03-07T07:31:09.671Z,99256.91
2018-03-07T07:33:35.399Z,99259.50
2018-03-07T07:36:01.127Z,99260.77
2018-03-07T07:38:26.866Z,99266.83
2018-03-07T07:40:52.586Z,99265.50
2018-03-07T07:43:18.328Z,99262.39
2018-03-07T07:45:44.046Z,99266.33
2018-03-07T07:48:09.777Z,99264.89
2018-03-07T07:50:35.505Z,99265.36
2018-03-07T07:53:01.237Z,99270.58
2018-03-07T07:55:26.977Z,99269.25
2018-03-07T07:57:52.711Z,99264.88
2018-03-07T08:00:18.434Z,99271.81
2018-03-07T08:02:44.149Z,99263.05
2018-03-07T08:05:09.886Z,99253.94
2018-03-07T08:07:35.602Z,99267.81
2018-03-07T08:10:01.339Z,99261.68
2018-03-07T08:12:27.080Z,99262.14
2018-03-07T08:14:52.821Z,99268.17
2018-03-07T08:17:18.545Z,99265.14
2018-03-07T08:19:44.270Z,99265.98
2018-03-07T08:22:09.986Z,99272.45
2018-03-07T08:24:35.709Z,99268.54
2018-03-07T08:27:01.421Z,99268.91
2018-03-07T08:29:27.186Z,99271.51
2018-03-07T08:31:52.904Z,99276.16
2018-03-07T08:34:19.425Z,99273.08
2018-03-07T08:36:45.165Z,99278.22
2018-03-07T08:39:10.882Z,99280.89
2018-03-07T08:41:36.622Z,99287.36
2018-03-07T08:44:02.368Z,99288.64
2018-03-07T08:46:28.091Z,99288.20
2018-03-07T08:48:53.815Z,99288.13
2018-03-07T08:51:19.569Z,99288.11
2018-03-07T08:53:45.293Z,99293.25
2018-03-07T08:56:11.018Z,99292.33
2018-03-07T08:58:36.738Z,99298.44
2018-03-07T09:01:02.486Z,99289.77
2018-03-07T09:03:28.227Z,99296.39
2018-03-07T09:05:53.954Z,99291.94
2018-03-07T09:08:19.670Z,99286.91
2018-03-07T09:10:45.403Z,99283.35
2018-03-07T09:13:11.132Z,99286.06
2018-03-07T09:15:36.869Z,99294.17
2018-03-07T09:18:02.590Z,99289.77
2018-03-07T09:20:28.333Z,99293.77
2018-03-07T09:22:54.054Z,99294.61
2018-03-07T09:25:19.790Z,99293.16
2018-03-07T09:27:45.518Z,99291.94
2018-03-07T09:30:11.247Z,99290.20
2018-03-07T09:32:36.969Z,99297.13
2018-03-07T09:35:02.750Z,99294.91
2018-03-07T09:37:28.436Z,99292.19
2018-03-07T09:39:54.163Z,99300.37
2018-03-07T09:42:19.898Z,99300.34
2018-03-07T09:44:45.653Z,99305.83
2018-03-07T09:47:11.390Z,99299.94
2018-03-07T09:49:37.101Z,99300.86
2018-03-07T09:52:02.842Z,99302.78
2018-03-07T09:54:28.566Z,99307.31
2018-03-07T09:56:54.295Z,99308.27
2018-03-07T09:59:20.025Z,99318.72
2018-03-07T10:01:45.761Z,99315.35
2018-03-07T10:04:11.485Z,99312.88
2018-03-07T10:06:37.231Z,99315.72
2018-03-07T10:09:03.010Z,99315.52
2018-03-07T10:11:28.747Z,99313.90
2018-03-07T10:13:54.485Z,99313.02
2018-03-07T10:16:20.225Z,99316.51
2018-03-07T10:18:45.946Z,99317.27
2018-03-07T10:21:11.666Z,99315.05
2018-03-07T10:23:37.409Z,99315.03
2018-03-07T10:26:03.135Z,99313.23
2018-03-07T10:28:28.872Z,99321.33
2018-03-07T10:30:54.591Z,99318.22
2018-03-07T10:33:26.336Z,99328.98
2018-03-07T10:35:52.054Z,99326.31
2018-03-07T10:38:17.798Z,99321.20
2018-03-07T10:40:43.535Z,99325.94
2018-03-07T10:43:09.267Z,99324.77
2018-03-07T10:45:35.005Z,99328.31
2018-03-07T10:48:00.738Z,99330.05
2018-03-07T10:50:26.458Z,99327.53
2018-03-07T10:52:52.194Z,99338.32
2018-03-07T10:55:17.923Z,99339.08
2018-03-07T10:57:43.696Z,99333.27
2018-03-07T11:00:09.438Z,99337.02
2018-03-07T11:02:35.192Z,99340.76
2018-03-07T11:05:00.895Z,99340.79
2018-03-07T11:07:26.614Z,99344.59
2018-03-07T11:09:52.361Z,99349.66
2018-03-07T11:12:18.079Z,99350.45
2018-03-07T11:14:43.805Z,99346.38
2018-03-07T11:17:09.522Z,99350.56
2018-03-07T11:19:35.253Z,99352.16
2018-03-07T11:22:00.982Z,99353.64
2018-03-07T11:24:26.718Z,99352.48
2018-03-07T11:26:52.463Z,99351.14
2018-03-07T11:29:18.214Z,99351.11
2018-03-07T11:31:43.953Z,99352.62
2018-03-07T11:34:09.695Z,99356.30
2018-03-07T11:36:35.421Z,99350.56
2018-03-07T11:39:01.158Z,99357.58
2018-03-07T11:41:26.894Z,99352.18
2018-03-07T11:43:52.650Z,99355.88
2018-03-07T11:46:18.378Z,99351.40
2018-03-07T11:48:44.093Z,99347.22
2018-03-07T11:51:09.805Z,99345.50
2018-03-07T11:53:35.533Z,99349.69
2018-03-07T11:56:01.261Z,99349.23
2018-03-07T11:58:26.986Z,99357.44
2018-03-07T12:00:52.710Z,99351.92
2018-03-07T12:03:18.429Z,99355.27
2018-03-07T12:05:44.171Z,99352.45
2018-03-07T12:08:09.886Z,99355.84
2018-03-07T12:10:35.627Z,99357.41
2018-03-07T12:13:01.362Z,99355.67
2018-03-07T12:15:27.122Z,99363.36
2018-03-07T12:17:52.850Z,99360.32
2018-03-07T12:20:18.591Z,99361.55
2018-03-07T12:22:44.326Z,99361.44
2018-03-07T12:25:10.056Z,99357.88
2018-03-07T12:27:35.819Z,99366.31
2018-03-07T12:30:01.555Z,99366.03
2018-03-07T12:32:27.281Z,99363.53
2018-03-07T12:34:53.026Z,99360.84
2018-03-07T12:37:18.741Z,99363.23
2018-03-07T12:39:44.473Z,99366.61
2018-03-07T12:42:10.214Z,99362.64
2018-03-07T12:44:35.929Z,99364.34
2018-03-07T12:47:01.684Z,99360.86
2018-03-07T12:49:27.394Z,99362.69
2018-03-07T12:51:53.130Z,99359.45
2018-03-07T12:54:18.867Z,99361.11
2018-03-07T12:56:44.606Z,99361.03
2018-03-07T12:59:10.331Z,99357.58
2018-03-07T13:01:36.062Z,99363.12
2018-03-07T13:04:01.792Z,99370.95
2018-03-07T13:06:27.525Z,99368.39
2018-03-07T13:08:53.241Z,99370.13
2018-03-07T13:11:18.977Z,99367.45
2018-03-07T13:13:44.712Z,99368.47
2018-03-07T13:16:10.453Z,99372.01
2018-03-07T13:18:36.174Z,99371.52
2018-03-07T13:21:01.902Z,99376.89
2018-03-07T13:23:27.626Z,99369.94
2018-03-07T13:25:53.364Z,99368.95
2018-03-07T13:28:19.084Z,99374.73
2018-03-07T13:30:44.804Z,99372.56
2018-03-07T13:33:10.539Z,99377.22
2018-03-07T13:35:36.275Z,99372.59
2018-03-07T13:38:02.026Z,99375.17
2018-03-07T13:40:27.754Z,99376.12
2018-03-07T13:42:53.493Z,99373.10
2018-03-07T13:45:19.214Z,99374.25
2018-03-07T13:47:44.952Z,99379.92
2018-03-07T13:50:10.702Z,99376.32
2018-03-07T13:52:40.955Z,99375.89
2018-03-07T13:55:08.149Z,99375.07
2018-03-07T13:57:33.895Z,99374.72
2018-03-07T13:59:59.635Z,99374.17
2018-03-07T14:02:25.377Z,99375.05
2018-03-07T14:04:51.132Z,99380.47
2018-03-07T14:07:16.881Z,99373.99
2018-03-07T14:09:42.687Z,99378.59
2018-03-07T14:12:08.449Z,99382.70
2018-03-07T14:14:34.201Z,99380.23
2018-03-07T14:16:59.947Z,99374.99
2018-03-07T14:19:25.677Z,99379.30
2018-03-07T14:21:51.393Z,99386.55
2018-03-07T14:24:17.128Z,99380.23
2018-03-07T14:26:42.846Z,99390.30
2018-03-07T14:29:08.594Z,99384.77
2018-03-07T14:31:34.305Z,99387.71
2018-03-07T14:34:00.031Z,99392.49
2018-03-07T14:36:25.758Z,99388.73
2018-03-07T14:38:51.515Z,99393.51
2018-03-07T14:41:17.219Z,99391.26
2018-03-07T14:43:42.929Z,99392.73
2018-03-07T14:46:08.629Z,99391.94
2018-03-07T14:48:34.359Z,99397.30
2018-03-07T14:51:00.080Z,99399.52
2018-03-07T14:53:25.819Z,99400.45
2018-03-07T14:55:51.534Z,99399.63
2018-03-07T14:58:17.274Z,99396.59
2018-03-07T15:00:42.994Z,99390.64
2018-03-07T15:03:08.714Z,99398.92
2018-03-07T15:05:34.425Z,99401.47
2018-03-07T15:08:00.185Z,99395.06
2018-03-07T15:10:25.925Z,99402.88
2018-03-07T15:12:51.681Z,99399.78
2018-03-07T15:15:17.410Z,99402.38
2018-03-07T15:17:43.134Z,99398.84
2018-03-07T15:20:08.863Z,99407.23
2018-03-07T15:22:34.590Z,99404.21
2018-03-07T15:25:00.322Z,99407.23
2018-03-07T15:27:26.048Z,99402.45
2018-03-07T15:29:51.767Z,99403.38
2018-03-07T15:32:17.502Z,99406.84
2018-03-07T15:34:43.262Z,99408.55
2018-03-07T15:37:09.152Z,99408.59
2018-03-07T15:39:34.929Z,99416.89
2018-03-07T15:42:00.704Z,99411.78
2018-03-07T15:44:26.431Z,99417.88
2018-03-07T15:46:52.362Z,99417.91
2018-03-07T15:49:18.121Z,99413.06
2018-03-07T15:51:43.915Z,99419.68
2018-03-07T15:54:10.507Z,99420.16
2018-03-07T15:56:36.320Z,99414.98
2018-03-07T15:59:02.266Z,99415.41
2018-03-07T16:01:28.192Z,99423.94
2018-03-07T16:03:54.015Z,99415.90
2018-03-07T16:06:20.888Z,99421.14
2018-03-07T16:08:49.026Z,99421.94
2018-03-07T16:11:14.942Z,99416.56
2018-03-07T16:13:40.690Z,99430.48
2018-03-07T16:16:06.438Z,99425.80
2018-03-07T16:18:32.162Z,99427.03
2018-03-07T16:20:57.915Z,99428.07
2018-03-07T16:23:23.678Z,99434.02
2018-03-07T16:25:49.432Z,99434.89
2018-03-07T16:28:15.174Z,99436.30
2018-03-07T16:30:41.004Z,99438.70
2018-03-07T16:33:06.698Z,99441.83
2018-03-07T16:35:32.451Z,99447.81
2018-03-07T16:37:58.183Z,99442.08
2018-03-07T16:40:23.962Z,99445.42
2018-03-07T16:42:49.702Z,99450.59
2018-03-07T16:45:15.441Z,99455.67
2018-03-07T16:47:41.206Z,99457.91
2018-03-07T16:50:06.932Z,99458.02
2018-03-07T16:52:39.726Z,99465.05
2018-03-07T16:55:05.452Z,99464.34
2018-03-07T16:57:31.183Z,99465.09
2018-03-07T16:59:56.904Z,99466.90
2018-03-07T17:02:22.627Z,99457.36
2018-03-07T17:04:48.423Z,99463.08
2018-03-07T17:07:14.151Z,99466.11
2018-03-07T17:09:39.865Z,99467.43
2018-03-07T17:12:05.594Z,99466.55
2018-03-07T17:14:31.322Z,99468.31
2018-03-07T17:16:57.059Z,99470.49
2018-03-07T17:19:22.774Z,99470.08
2018-03-07T17:21:48.494Z,99467.01
2018-03-07T17:24:14.206Z,99470.48
2018-03-07T17:26:39.945Z,99482.42
2018-03-07T17:29:05.671Z,99480.17
2018-03-07T17:31:31.405Z,99490.58
2018-03-07T17:33:57.110Z,99485.83
2018-03-07T17:36:22.889Z,99491.84
2018-03-07T17:38:48.623Z,99487.97
2018-03-07T17:41:14.410Z,99494.27
2018-03-07T17:43:40.213Z,99499.55
2018-03-07T17:46:05.917Z,99496.09
2018-03-07T17:48:31.642Z,99496.94
2018-03-07T17:50:57.357Z,99503.03
2018-03-07T17:53:23.097Z,99503.08
2018-03-07T17:55:48.809Z,99503.91
2018-03-07T17:58:14.537Z,99499.70
2018-03-07T18:00:40.270Z,99500.98
2018-03-07T18:03:06.003Z,99498.96
2018-03-07T18:05:31.749Z,99506.72
2018-03-07T18:07:57.486Z,99502.23
2018-03-07T18:10:23.211Z,99508.45
2018-03-07T18:12:48.973Z,99506.70
2018-03-07T18:15:14.794Z,99505.27
2018-03-07T18:17:40.542Z,99509.38
2018-03-07T18:20:06.288Z,99513.72
2018-03-07T18:22:32.058Z,99510.70
2018-03-07T18:24:58.507Z,99516.17
2018-03-07T18:27:24.245Z,99509.34
2018-03-07T18:29:49.978Z,99510.56
2018-03-07T18:32:15.779Z,99509.81
2018-03-07T18:34:41.508Z,99507.92
2018-03-07T18:37:07.246Z,99515.11
2018-03-07T18:39:33.084Z,99514.23
2018-03-07T18:41:58.842Z,99513.80
2018-03-07T18:44:24.565Z,99506.56
2018-03-07T18:46:50.294Z,99510.06
2018-03-07T18:49:16.046Z,99504.84
2018-03-07T18:51:41.778Z,99504.86
2018-03-07T18:54:07.515Z,99506.58
2018-03-07T18:56:33.267Z,99512.24
2018-03-07T18:58:59.054Z,99512.26
2018-03-07T19:01:24.804Z,99508.73
2018-03-07T19:03:50.592Z,99510.46
2018-03-07T19:06:16.297Z,99513.98
2018-03-07T19:08:42.069Z,99509.67
2018-03-07T19:11:07.819Z,99510.11
2018-03-07T19:13:33.586Z,99513.11
2018-03-07T19:15:59.360Z,99510.99
2018-03-07T19:18:25.107Z,99514.47
2018-03-07T19:20:50.844Z,99508.42
2018-03-07T19:23:16.590Z,99511.44
2018-03-07T19:25:42.322Z,99508.42
2018-03-07T19:28:08.048Z,99511.03
2018-03-07T19:30:33.786Z,99517.12
2018-03-07T19:32:59.518Z,99518.44
2018-03-07T19:35:25.258Z,99511.47
2018-03-07T19:37:51.023Z,99507.14
2018-03-07T19:40:16.778Z,99513.68
2018-03-07T19:42:42.510Z,99512.81
2018-03-07T19:45:08.242Z,99511.95
2018-03-07T19:47:33.974Z,99511.94
2018-03-07T19:49:59.717Z,99514.57
2018-03-07T19:52:25.450Z,99515.86
2018-03-07T19:54:51.211Z,99522.80
2018-03-07T19:57:16.921Z,99521.54
2018-03-07T19:59:42.660Z,99521.08
2018-03-07T20:02:08.402Z,99520.65
2018-03-07T20:04:35.563Z,99515.88
2018-03-07T20:07:01.711Z,99528.87
2018-03-07T20:09:28.807Z,99529.30
2018-03-07T20:11:54.742Z,99539.72
2018-03-07T20:14:20.694Z,99535.36
2018-03-07T20:16:46.425Z,99534.92
2018-03-07T20:19:12.245Z,99534.50
2018-03-07T20:21:39.445Z,99531.92
2018-03-07T20:24:05.539Z,99532.80
2018-03-07T20:26:31.293Z,99531.04
2018-03-07T20:28:57.014Z,99538.84
2018-03-07T20:31:22.801Z,99539.30
2018-03-07T20:33:48.747Z,99539.29
2018-03-07T20:36:14.538Z,99538.84
2018-03-07T20:38:40.317Z,99550.15
2018-03-07T20:41:06.890Z,99550.13
2018-03-07T20:43:32.622Z,99548.42
2018-03-07T20:45:58.350Z,99545.36
2018-03-07T20:48:24.151Z,99551.42
2018-03-07T20:50:49.928Z,99555.23
2018-03-07T20:53:15.657Z,99549.91
2018-03-07T20:55:41.380Z,99551.71
2018-03-07T20:58:07.105Z,99562.55
2018-03-07T21:00:33.004Z,99553.07
2018-03-07T21:02:58.732Z,99556.41
2018-03-07T21:05:24.441Z,99555.52
2018-03-07T21:07:50.177Z,99555.98
2018-03-07T21:10:15.903Z,99556.22
2018-03-07T21:12:42.024Z,99556.34
2018-03-07T21:15:08.148Z,99559.77
2018-03-07T21:17:34.237Z,99556.32
2018-03-07T21:20:00.325Z,99554.17
2018-03-07T21:22:26.461Z,99557.71
2018-03-07T21:24:52.230Z,99558.52
2018-03-07T21:27:18.352Z,99559.44
2018-03-07T21:29:44.115Z,99556.43
2018-03-07T21:32:10.270Z,99563.78
2018-03-07T21:34:35.998Z,99561.19
2018-03-07T21:37:02.050Z,99560.22
2018-03-07T21:39:27.794Z,99558.13
2018-03-07T21:41:53.522Z,99561.19
2018-03-07T21:44:19.650Z,99556.80
2018-03-07T21:46:45.606Z,99561.03
2018-03-07T21:49:11.359Z,99561.04
2018-03-07T21:51:37.493Z,99559.77
2018-03-07T21:54:03.446Z,99559.80
2018-03-07T21:56:29.220Z,99563.81
2018-03-07T21:58:55.337Z,99563.34
2018-03-07T22:01:21.431Z,99560.30
2018-03-07T22:03:47.194Z,99561.94
2018-03-07T22:06:12.917Z,99562.38
2018-03-07T22:08:38.656Z,99562.44
2018-03-07T22:11:04.380Z,99561.52
2018-03-07T22:13:30.641Z,99569.30
2018-03-07T22:15:56.670Z,99560.65
2018-03-07T22:18:22.710Z,99565.42
2018-03-07T22:20:48.846Z,99562.84
2018-03-07T22:23:14.674Z,99559.84
2018-03-07T22:25:40.401Z,99566.45
2018-03-07T22:28:06.159Z,99563.80
2018-03-07T22:30:31.907Z,99562.99
2018-03-07T22:32:57.650Z,99566.41
2018-03-07T22:35:23.389Z,99562.55
2018-03-07T22:37:49.157Z,99569.06
2018-03-07T22:40:14.914Z,99560.35
2018-03-07T22:42:40.641Z,99567.77
2018-03-07T22:45:06.390Z,99568.19
2018-03-07T22:47:32.134Z,99572.59
2018-03-07T22:49:57.886Z,99571.76
2018-03-07T22:52:23.624Z,99564.80
2018-03-07T22:54:49.391Z,99568.78
2018-03-07T22:57:15.137Z,99561.39
2018-03-07T22:59:42.291Z,99570.09
2018-03-07T23:02:08.045Z,99564.47
2018-03-07T23:04:33.787Z,99564.91
2018-03-07T23:06:59.517Z,99560.55
2018-03-07T23:09:25.358Z,99566.66
2018-03-07T23:11:51.084Z,99567.95
2018-03-07T23:14:16.809Z,99569.25
2018-03-07T23:16:42.543Z,99562.31
2018-03-07T23:19:08.317Z,99568.39
2018-03-07T23:21:34.061Z,99567.95
2018-03-07T23:23:59.777Z,99566.24
2018-03-07T23:26:25.506Z,99565.81
2018-03-07T23:28:51.218Z,99568.87
2018-03-07T23:31:17.559Z,99569.73
2018-03-07T23:33:43.305Z,99567.55
2018-03-07T23:36:09.030Z,99568.84
2018-03-07T23:38:34.755Z,99570.16
2018-03-07T23:41:00.550Z,99571.88
2018-03-07T23:43:26.270Z,99567.13
2018-03-07T23:45:51.996Z,99574.05
2018-03-07T23:48:18.111Z,99566.24
2018-03-07T23:50:43.861Z,99567.13
2018-03-07T23:53:09.598Z,99569.71
2018-03-07T23:55:35.326Z,99564.08
2018-03-07T23:58:01.074Z,99568.33
